TFM - Tactical Decision Aid (Experimental) INFO Settings
ID: Runway Winds: CIG/VIS Threshold: METAR Board: Map:

KHBG - Hattiesburg-Bobby Chain Muni

Updated at: 0354 UTC 20 Feb 2018
Latest TAF at: 2320 UTC 19 Feb 2018

TAF Board

Time0253Z20/04Z20/05Z20/06Z20/07Z20/08Z20/09Z20/10Z20/11Z20/12Z20/13Z20/14Z20/15Z20/16Z
TypeOBSPRVLPRVLPRVLPRVLPRVLPRVLPRVLPRVLPRVLPRVLPRVLPRVLPRVL
VIS10>6>6>6>6>6>655555>6>6
CIG47252515151515888881515
CoverOVCBKNBKNBKNBKNBKNBKNBKNBKNBKNBKNBKNBKNBKN
FltCatVFRMVFRMVFRMVFRMVFRMVFRMVFRIFRIFRIFRIFRIFRMVFRMVFR
WX--------------BRBRBRBRBR----
WDir140150150160160160160150150150150150150150
WSpd78877775555599
WGst----------------------------
TAF
KHBG 192320Z 2000/2024 16008KT P6SM FEW050 SCT250
  FM200100 15008KT P6SM BKN025
  FM200600 16007KT P6SM BKN015
  FM201000 15005KT 5SM BR BKN008
  FM201500 15009KT P6SM BKN015
  FM201800 16012KT P6SM BKN025


METAR Board

Time19/16Z 19/17Z 19/18Z 19/19Z 19/20Z 19/21Z 19/22Z 19/23Z 20/00Z 20/01Z 20/02Z 20/03Z
VIS10 10 10 10 10 10 10 10 10 10 10 10
CIG-- -- 49 60 -- 80 -- -- -- -- 41 47
CoverSCTSCTBKNBKNSCTBKNSCTFEWFEWFEWBKNOVC
FltCatVFRVFRVFRVFRVFRVFRVFRVFRVFRVFRVFRVFR
WX------------------------
WDir140190170190160170150170160160150140
WSpd11 10 16 13 14 12 16 14 10 13 10 7
WGst-- -- -- 26 22 20 -- 20 -- 21 -- --
METAR
KHBG 191553Z AUTO 14011KT 10SM FEW018 SCT027 24/19 A3021 RMK AO2 SLP227 T02390189
KHBG 191653Z AUTO 19010KT 10SM FEW028 FEW033 SCT043 25/18 A3020 RMK AO2 SLP222 T02500178
KHBG 191753Z AUTO 17016KT 10SM SCT040 BKN049 BKN060 26/17 A3018 RMK AO2 SLP216 T02610172 10267 20194 58009
KHBG 191853Z AUTO 19013G26KT 10SM SCT048 BKN060 28/17 A3014 RMK AO2 PK WND 15026/1850 SLP203 T02780167
KHBG 191953Z AUTO 16014G22KT 10SM FEW049 SCT070 27/17 A3013 RMK AO2 SLP200 T02720167
KHBG 192053Z AUTO 17012G20KT 10SM FEW040 BKN080 27/18 A3013 RMK AO2 SLP198 T02720178 56018
KHBG 192153Z AUTO 15016KT 10SM FEW041 SCT055 27/17 A3012 RMK AO2 SLP196 T02670172
KHBG 192253Z AUTO 17014G20KT 10SM FEW040 25/17 A3014 RMK AO2 SLP202 T02500172
KHBG 192353Z AUTO 16010KT 10SM FEW075 24/18 A3015 RMK AO2 SLP207 T02390183 10278 20233 53009
KHBG 200053Z AUTO 16013G21KT 10SM FEW026 23/19 A3016 RMK AO2 SLP209 T02280194
KHBG 200153Z AUTO 15010KT 10SM SCT021 BKN041 22/19 A3016 RMK AO2 SLP210 T02220194
KHBG 200253Z AUTO 14007KT 10SM BKN047 OVC055 22/19 A3017 RMK AO2 RAB01E10 SLP214 P0000 60000 T02170194 53007

TAF/METAR Board Legend

Potential Impact
  None Marginal Slight Moderate High
Visibility (sm) >5 3≤X≤5 2≤X<3 0.75≤X<2 <0.75
Ceiling (100 ft) >30 10≤X≤30 8≤X<10 2≤X<8 <2
Wind Speed (kt) <10 10≤X<20 20≤X<30 ≥30
Wind Gust (kt) <15 15≤X<25 25≤X<35 ≥35
Weather No Wx Reported VCTS -TS,-FZRA TS,FZRA +TS,+FZRA